Terminal Aerodrome Forecast
Issued by NWS Jacksonville, FL

Home | Current Version | Previous Version | Text Only | Print | Product List | Glossary On
Versions: 1 2 3 4 5 6 7 8 9 10 11 12 13 14 15 16 17 18 19 20 21 22 23 24 25 26 27 28
000
FTUS42 KJAX 182028 AAC
TAFSSI
TAF AMD
KSSI 182028Z 1820/1918 10005KT P6SM VCSH SCT020 BKN050 OVC090
     FM182200 13008KT P6SM VCTS SCT035CB BKN150 BKN250
      TEMPO 1823/1902 3SM TSRA BR BKN030CB BKN100 OVC250
     FM190300 21004KT P6SM VCSH SCT025 BKN120 OVC250
     FM190400 22003KT P6SM OVC250
     FM191300 24008KT P6SM SCT025 BKN250=

USA.gov is the U.S. government's official web portal to all federal, state and local government web resources and services.